Saint Mary, Montana
Current Conditions -  °F | °C
As of 5:56 AM on Saturday 20 Dec 2014 (Local Time) from KCTB Reporting Station
Clear Clear  
Wind Chill: 21°   Ceiling: Unl
Heat Index: 33°   Visibility: 10mi
Dew Point: 22°   Wind: 23mph
Humidity: 64%   Direction: 250°WSW
Pressure: 29.79"   Gusts: 36mph
Location:  48.5484°N, 112.952°W
Report Text: KCTB 201256Z AUTO 25020G31KT 10SM CLR 01/M06 A2979 RMK AO2 PK WND 26031/1249 SLP109 T00061056
Loading
Personal Weather Stations






























Interactive Weather Map New forecast layout! Learn more

10-Day Weather Forecast

Advertisements
Track Severe Weather on mobile